Time;durP1;ratioP1;P1;durP2;ratioP2;P2;SDS_P1;SDS_P2;PMS_P1;PMS_P2;Temp;Humidity;BMP_temperature;BMP_pressure;BME280_temperature;BME280_humidity;BME280_pressure;Samples;Min_cycle;Max_cycle;Signal;HPM_P1;HPM_P2
2022/09/14 00:00:48;;;;;;;5.70;3.97;;;;;;;12.97;63.05;93881.63;5145858;27;20029;-71
2022/09/14 00:03:15;;;;;;;6.28;3.88;;;;;;;12.94;63.15;93876.13;5146077;27;20023;-70
2022/09/14 00:05:40;;;;;;;8.68;4.10;;;;;;;12.90;63.88;93884.00;5146264;27;20083;-70
2022/09/14 00:08:06;;;;;;;6.88;4.32;;;;;;;12.86;63.78;93883.09;5127565;27;20046;-70
2022/09/14 00:10:32;;;;;;;8.88;4.45;;;;;;;12.84;64.06;93885.31;5145987;27;20027;-70
2022/09/14 00:12:59;;;;;;;5.20;3.50;;;;;;;12.82;63.88;93877.66;5145935;27;20026;-70
2022/09/14 00:15:24;;;;;;;5.47;3.90;;;;;;;12.73;64.27;93889.50;5145973;27;20034;-71
2022/09/14 00:17:50;;;;;;;7.10;3.90;;;;;;;12.62;64.10;93883.78;5145848;27;20045;-70
2022/09/14 00:20:15;;;;;;;6.95;4.05;;;;;;;12.60;64.80;93891.34;5145885;27;20098;-70
2022/09/14 00:22:41;;;;;;;5.50;4.07;;;;;;;12.49;64.50;93890.91;5145724;27;20064;-70
2022/09/14 00:25:07;;;;;;;10.98;4.13;;;;;;;12.44;65.00;93899.13;5145789;27;20061;-70
2022/09/14 00:27:32;;;;;;;9.23;4.82;;;;;;;12.42;64.97;93886.06;5145734;27;20099;-70
2022/09/14 00:29:58;;;;;;;6.63;3.97;;;;;;;12.44;65.27;93893.78;5145207;27;20023;-70
2022/09/14 00:32:23;;;;;;;5.22;3.95;;;;;;;12.36;64.94;93887.38;5145425;27;20068;-70
2022/09/14 00:34:49;;;;;;;5.40;3.85;;;;;;;12.36;65.21;93884.69;5145377;27;20022;-70
2022/09/14 00:37:14;;;;;;;7.63;4.50;;;;;;;12.36;65.57;93887.38;5145443;27;20022;-70
2022/09/14 00:39:40;;;;;;;6.32;3.95;;;;;;;12.37;65.71;93880.91;5145463;27;20308;-70
2022/09/14 00:42:06;;;;;;;7.85;4.57;;;;;;;12.37;66.02;93883.56;5145381;27;20250;-70
2022/09/14 00:44:31;;;;;;;14.45;4.32;;;;;;;12.32;66.20;93888.34;5145305;27;20136;-70
2022/09/14 00:47:00;;;;;;;7.40;3.80;;;;;;;12.35;66.42;93898.38;5145164;27;20027;-70
2022/09/14 00:49:33;;;;;;;5.95;4.20;;;;;;;12.35;66.51;93893.03;5145039;27;20246;-70
2022/09/14 00:52:08;;;;;;;9.00;4.18;;;;;;;12.34;66.34;93894.94;5145231;27;20019;-70
2022/09/14 00:54:40;;;;;;;10.43;4.60;;;;;;;12.29;66.73;93887.06;5144989;27;20023;-71
2022/09/14 00:57:06;;;;;;;6.17;4.00;;;;;;;12.29;66.59;93907.69;5145119;27;20253;-70
2022/09/14 00:59:37;;;;;;;7.15;3.83;;;;;;;12.26;66.72;93903.00;5144998;27;20090;-70
2022/09/14 01:02:05;;;;;;;8.60;3.72;;;;;;;12.22;66.23;93902.84;5143968;27;20035;-70
2022/09/14 01:04:31;;;;;;;7.10;3.90;;;;;;;12.21;66.33;93902.06;5145037;27;20094;-71
2022/09/14 01:07:05;;;;;;;7.97;4.07;;;;;;;12.23;66.57;93907.06;5144790;27;20034;-71
2022/09/14 01:09:37;;;;;;;5.03;3.13;;;;;;;12.21;66.47;93907.41;5144607;27;20214;-71
2022/09/14 01:12:05;;;;;;;6.27;4.03;;;;;;;12.19;65.93;93901.63;5144759;27;20174;-71
2022/09/14 01:14:58;;;;;;;9.25;3.45;;;;;;;12.22;65.96;93892.94;5144751;27;20458;-71
2022/09/14 01:17:29;;;;;;;4.22;3.00;;;;;;;12.21;66.38;93901.28;5144632;27;20091;-71
2022/09/14 01:20:27;;;;;;;4.45;3.35;;;;;;;12.18;66.24;93900.03;5144551;27;20019;-71
2022/09/14 01:23:02;;;;;;;5.35;3.58;;;;;;;12.18;66.03;93904.59;5144608;27;20026;-71
2022/09/14 01:25:51;;;;;;;5.30;3.22;;;;;;;12.19;65.97;93904.28;5144437;27;20015;-71
2022/09/14 01:28:35;;;;;;;4.97;3.25;;;;;;;12.17;66.11;93898.47;5144540;27;20019;-71
2022/09/14 01:31:05;;;;;;;4.45;3.38;;;;;;;12.18;66.20;93892.00;5144314;27;20023;-71
2022/09/14 01:33:40;;;;;;;4.50;3.10;;;;;;;12.16;66.34;93898.78;5144391;27;20023;-71
2022/09/14 01:36:08;;;;;;;4.00;2.75;;;;;;;12.15;66.37;93900.69;5144263;27;20193;-71
2022/09/14 01:38:41;;;;;;;5.57;3.17;;;;;;;12.14;66.23;93899.09;5144347;27;20011;-71
2022/09/14 01:41:11;;;;;;;6.97;3.47;;;;;;;12.16;66.04;93891.56;5143701;27;20022;-71
2022/09/14 01:43:40;;;;;;;6.10;3.33;;;;;;;12.18;66.08;93896.59;5144357;27;20026;-71
2022/09/14 01:46:12;;;;;;;4.90;3.22;;;;;;;12.17;66.35;93890.47;5144233;27;20230;-70
2022/09/14 01:48:56;;;;;;;6.18;3.50;;;;;;;12.07;66.39;93879.34;5143981;27;20023;-70
2022/09/14 01:51:27;;;;;;;5.05;3.25;;;;;;;12.10;66.26;93890.16;5144191;27;20251;-71
2022/09/14 01:53:59;;;;;;;4.60;3.20;;;;;;;12.06;66.09;93907.94;5143884;27;20023;-71
2022/09/14 01:56:35;;;;;;;4.55;2.92;;;;;;;12.07;66.11;93901.50;5125722;27;20259;-71
2022/09/14 01:59:17;;;;;;;5.35;3.58;;;;;;;12.10;66.46;93900.06;5144106;27;20019;-71
2022/09/14 02:01:48;;;;;;;8.00;3.55;;;;;;;12.08;66.56;93899.63;5143988;27;20094;-71
2022/09/14 02:04:19;;;;;;;11.60;3.75;;;;;;;12.11;66.66;93898.97;5144017;27;20088;-70
2022/09/14 02:06:47;;;;;;;7.45;3.38;;;;;;;12.10;66.93;93902.75;5143858;27;20236;-71
2022/09/14 02:09:18;;;;;;;9.35;3.00;;;;;;;12.08;67.10;93897.72;5143676;27;20027;-71
2022/09/14 02:11:45;;;;;;;6.75;3.20;;;;;;;12.03;66.82;93896.00;5143979;27;20221;-70
2022/09/14 02:14:11;;;;;;;4.43;3.15;;;;;;;12.07;66.49;93898.84;5144141;27;20026;-71
2022/09/14 02:16:38;;;;;;;5.05;3.03;;;;;;;12.07;66.68;93901.50;5143827;27;20023;-71
2022/09/14 02:19:04;;;;;;;9.32;3.38;;;;;;;12.06;66.90;93912.50;5143804;28;20328;-71
2022/09/14 02:21:31;;;;;;;4.30;3.03;;;;;;;12.03;66.74;93896.00;5143695;27;20317;-71
2022/09/14 02:23:58;;;;;;;11.32;3.67;;;;;;;12.04;66.86;93902.13;5143732;28;20026;-71
2022/09/14 02:26:25;;;;;;;7.00;2.95;;;;;;;12.02;67.29;93907.00;5143733;27;20211;-70
2022/09/14 02:28:54;;;;;;;5.22;3.42;;;;;;;12.00;67.01;93891.31;5143487;28;20027;-71
2022/09/14 02:31:52;;;;;;;6.90;3.88;;;;;;;12.00;66.93;93874.50;5143553;27;20019;-71
2022/09/14 02:34:18;;;;;;;4.75;3.55;;;;;;;11.99;67.11;93899.66;5143564;27;20304;-71
2022/09/14 02:36:52;;;;;;;5.05;3.63;;;;;;;11.96;67.21;93897.63;5143616;27;20026;-70
2022/09/14 02:39:30;;;;;;;5.75;3.58;;;;;;;11.89;67.46;93905.34;5143583;27;20019;-70
2022/09/14 02:42:33;;;;;;;4.43;3.45;;;;;;;11.90;67.37;93901.56;5143439;27;20042;-70
2022/09/14 02:45:02;;;;;;;;;;;;;;;11.82;67.29;93898.59;5144129;28;20022;-71
2022/09/14 02:47:46;;;;;;;5.28;3.30;;;;;;;11.80;67.65;93903.44;5143594;28;19903;-70
2022/09/14 02:50:22;;;;;;;9.35;3.78;;;;;;;11.77;67.75;93906.75;5143363;27;20030;-70
2022/09/14 02:53:05;;;;;;;5.20;3.47;;;;;;;11.78;67.45;93913.66;5145260;27;20091;-71
2022/09/14 02:55:37;;;;;;;5.95;4.05;;;;;;;11.77;67.63;93906.75;5147801;27;20038;-70
2022/09/14 02:58:09;;;;;;;5.82;3.58;;;;;;;11.73;67.57;93908.50;5147507;27;20031;-70
2022/09/14 03:00:44;;;;;;;7.03;3.92;;;;;;;11.68;67.82;93902.53;5147434;27;20026;-71
2022/09/14 03:03:12;;;;;;;5.50;3.75;;;;;;;11.62;67.98;93907.25;5147463;27;20026;-70
2022/09/14 03:05:38;;;;;;;6.65;4.25;;;;;;;11.69;68.04;93917.47;5146775;27;20035;-70
2022/09/14 03:08:04;;;;;;;8.73;4.20;;;;;;;11.64;68.13;93897.84;5146998;27;20214;-71
2022/09/14 03:10:31;;;;;;;11.38;4.50;;;;;;;11.60;68.12;93909.47;5146956;27;20023;-71
2022/09/14 03:12:58;;;;;;;11.48;4.00;;;;;;;11.61;68.24;93911.03;5147121;27;20043;-70
2022/09/14 03:15:25;;;;;;;5.30;3.80;;;;;;;11.58;68.55;93906.31;5146899;27;20022;-71
2022/09/14 03:17:51;;;;;;;7.25;3.50;;;;;;;11.58;68.79;93909.00;5147029;27;20019;-70
2022/09/14 03:20:19;;;;;;;10.10;4.47;;;;;;;11.59;68.90;93910.56;5146968;27;20023;-70
2022/09/14 03:22:46;;;;;;;6.88;4.53;;;;;;;11.55;68.83;93920.31;5146665;27;20031;-71
2022/09/14 03:25:11;;;;;;;9.55;4.22;;;;;;;11.51;68.66;93911.38;5146789;27;20031;-71
2022/09/14 03:27:38;;;;;;;5.57;3.90;;;;;;;11.51;68.91;93906.81;5146676;27;20086;-70
2022/09/14 03:30:05;;;;;;;6.57;4.13;;;;;;;11.45;68.79;93910.75;5146673;27;20027;-70
2022/09/14 03:32:31;;;;;;;7.50;4.20;;;;;;;11.41;69.02;93910.59;5146658;27;20026;-71
2022/09/14 03:34:56;;;;;;;7.85;4.53;;;;;;;11.38;69.27;93894.47;5146737;27;20224;-70
2022/09/14 03:37:23;;;;;;;7.28;4.47;;;;;;;11.37;69.45;93916.88;5146596;27;20019;-70
2022/09/14 03:39:48;;;;;;;8.20;5.63;;;;;;;11.31;69.46;93913.59;5146289;27;20252;-70
2022/09/14 03:42:14;;;;;;;7.38;4.80;;;;;;;11.31;69.72;93902.91;5146434;27;20022;-70
2022/09/14 03:44:39;;;;;;;9.68;4.63;;;;;;;11.33;69.71;93905.28;5146763;27;20344;-70
2022/09/14 03:47:05;;;;;;;11.70;4.82;;;;;;;11.34;70.50;93910.31;5146382;27;20099;-71
2022/09/14 03:49:30;;;;;;;7.22;4.10;;;;;;;11.34;70.53;93902.31;5146313;27;20075;-71
2022/09/14 03:51:56;;;;;;;6.82;4.50;;;;;;;11.25;70.57;93896.19;5146113;27;20023;-71
2022/09/14 03:54:21;;;;;;;7.43;4.50;;;;;;;11.26;70.42;93903.09;5146442;27;20039;-71
2022/09/14 03:56:50;;;;;;;12.77;4.47;;;;;;;11.27;70.14;93910.00;5146129;27;20125;-71
2022/09/14 03:59:15;;;;;;;6.47;4.47;;;;;;;11.28;69.96;93908.91;5146224;27;20052;-71
2022/09/14 04:01:41;;;;;;;6.43;4.13;;;;;;;11.29;70.04;93912.34;5146281;27;20317;-71
2022/09/14 04:04:06;;;;;;;8.88;4.20;;;;;;;11.30;70.21;93920.03;5145419;27;20217;-71
2022/09/14 04:06:32;;;;;;;5.68;3.78;;;;;;;11.29;70.15;93915.03;5146006;27;20098;-71
2022/09/14 04:08:58;;;;;;;7.55;4.30;;;;;;;11.24;70.00;93908.75;5145763;27;20038;-71
2022/09/14 04:11:24;;;;;;;7.50;4.38;;;;;;;11.24;70.29;93919.41;5145687;27;20309;-71
2022/09/14 04:13:51;;;;;;;9.20;4.28;;;;;;;11.26;70.40;93921.78;5145834;27;20029;-71
2022/09/14 04:16:19;;;;;;;6.60;4.43;;;;;;;11.16;70.65;93912.19;5145792;27;20331;-71
2022/09/14 04:18:45;;;;;;;10.00;4.47;;;;;;;11.20;70.56;93912.38;5145622;27;20023;-71
2022/09/14 04:21:17;;;;;;;5.65;4.30;;;;;;;11.24;70.56;93910.63;5146051;27;20034;-71
2022/09/14 04:23:46;;;;;;;8.00;4.80;;;;;;;11.26;70.69;93913.78;5145656;27;20092;-71
2022/09/14 04:26:16;;;;;;;9.35;4.53;;;;;;;11.28;70.66;93911.56;5145970;27;20094;-71
2022/09/14 04:28:41;;;;;;;7.75;4.65;;;;;;;11.28;70.87;93916.13;5145846;27;20026;-71
2022/09/14 04:31:08;;;;;;;8.07;4.40;;;;;;;11.34;70.46;93907.63;5145610;27;20019;-71
2022/09/14 04:33:34;;;;;;;10.48;4.60;;;;;;;11.41;70.25;93907.16;5145386;27;20027;-70
2022/09/14 04:36:01;;;;;;;10.13;4.70;;;;;;;11.48;70.22;93912.81;5145217;27;20023;-69
2022/09/14 04:38:31;;;;;;;7.55;4.32;;;;;;;11.54;70.31;93914.22;5145246;27;20093;-70
2022/09/14 04:40:57;;;;;;;10.07;4.35;;;;;;;11.58;70.30;93917.00;5145327;27;20027;-70
2022/09/14 04:43:24;;;;;;;12.10;7.03;;;;;;;11.64;70.02;93916.53;5145289;27;20056;-70
2022/09/14 04:45:50;;;;;;;8.00;5.18;;;;;;;11.72;70.22;93917.59;5144946;27;20213;-70
2022/09/14 04:48:16;;;;;;;7.38;4.82;;;;;;;11.78;69.84;93921.66;5145177;27;20075;-70
2022/09/14 04:50:42;;;;;;;8.07;5.22;;;;;;;11.85;69.47;93927.31;5145167;27;20051;-77
2022/09/14 04:53:08;;;;;;;9.05;4.88;;;;;;;11.95;69.29;93922.78;5144929;27;20023;-76
2022/09/14 04:55:36;;;;;;;8.05;5.32;;;;;;;12.04;69.43;93928.84;5144941;27;20067;-77
2022/09/14 04:58:03;;;;;;;6.45;4.68;;;;;;;12.15;69.03;93924.72;5145192;27;20041;-77
2022/09/14 05:00:29;;;;;;;9.88;4.97;;;;;;;12.23;69.00;93928.44;5145126;27;20038;-77
2022/09/14 05:02:54;;;;;;;10.63;4.80;;;;;;;12.27;68.37;93918.69;5144892;27;20022;-78
2022/09/14 05:05:20;;;;;;;11.02;5.18;;;;;;;12.35;67.88;93933.91;5145032;27;20209;-77
2022/09/14 05:07:45;;;;;;;7.25;5.72;;;;;;;12.47;67.97;93935.13;5144757;27;20351;-78
2022/09/14 05:10:11;;;;;;;8.85;4.82;;;;;;;12.56;67.27;93933.97;5144880;27;20255;-78
2022/09/14 05:12:36;;;;;;;10.85;5.32;;;;;;;12.63;67.48;93933.44;5144629;27;20018;-78
2022/09/14 05:15:05;;;;;;;7.55;4.95;;;;;;;12.72;66.03;93941.41;5144712;27;20337;-78
2022/09/14 05:17:34;;;;;;;8.55;4.57;;;;;;;12.79;65.78;93941.69;5144060;27;20220;-79
2022/09/14 05:20:09;;;;;;;7.88;5.30;;;;;;;12.84;65.45;93938.81;5144487;27;20041;-78
2022/09/14 05:22:34;;;;;;;7.82;5.35;;;;;;;12.91;65.12;93938.31;5144694;27;20292;-79
2022/09/14 05:25:00;;;;;;;12.10;5.05;;;;;;;12.95;64.79;93942.69;5144655;27;20023;-74
2022/09/14 05:27:25;;;;;;;8.38;5.32;;;;;;;13.04;64.40;93948.75;5144366;27;20224;-71
2022/09/14 05:29:51;;;;;;;19.80;4.97;;;;;;;13.12;63.67;93952.47;5144539;27;20233;-71
2022/09/14 05:32:16;;;;;;;15.50;5.60;;;;;;;13.19;63.59;93951.97;5144453;27;20068;-70
2022/09/14 05:34:42;;;;;;;9.45;4.82;;;;;;;13.20;63.51;93954.31;5144335;27;20082;-70
2022/09/14 05:37:09;;;;;;;11.48;4.85;;;;;;;13.21;63.33;93947.06;5144391;27;20023;-71
2022/09/14 05:39:35;;;;;;;12.65;5.45;;;;;;;13.30;63.65;93955.84;5126083;27;20333;-70
2022/09/14 05:42:00;;;;;;;18.10;5.00;;;;;;;13.33;63.39;93952.53;5143995;27;20030;-71
2022/09/14 05:44:26;;;;;;;19.95;5.15;;;;;;;13.36;63.22;93965.25;5144062;27;21577;-71
2022/09/14 05:46:51;;;;;;;13.00;4.93;;;;;;;13.43;62.82;93954.78;5144199;27;20015;-71
2022/09/14 05:49:17;;;;;;;11.75;4.82;;;;;;;13.50;62.53;93954.25;5143927;27;20114;-70
2022/09/14 05:51:42;;;;;;;8.15;4.25;;;;;;;13.61;62.26;93955.41;5143709;27;20023;-70
2022/09/14 05:54:10;;;;;;;8.68;3.30;;;;;;;13.64;61.23;93965.47;5143868;27;20027;-70
2022/09/14 05:56:36;;;;;;;9.18;4.20;;;;;;;13.73;61.31;93962.69;5144040;27;20318;-70
2022/09/14 05:59:02;;;;;;;9.55;4.25;;;;;;;13.80;60.80;93970.22;5143809;27;20056;-70
2022/09/14 06:01:31;;;;;;;8.82;4.55;;;;;;;13.82;61.13;93963.41;5143755;27;20019;-70
2022/09/14 06:03:59;;;;;;;5.75;4.22;;;;;;;13.92;61.26;93977.50;5143487;27;20228;-72
2022/09/14 06:06:25;;;;;;;10.63;3.75;;;;;;;14.05;60.93;93982.56;5143641;27;20209;-72
2022/09/14 06:08:52;;;;;;;8.57;5.25;;;;;;;14.15;61.16;93976.00;5125138;28;20047;-71
2022/09/14 06:11:24;;;;;;;6.38;4.25;;;;;;;14.22;60.42;93970.09;5143906;27;20084;-72
2022/09/14 06:13:50;;;;;;;12.40;4.78;;;;;;;14.31;59.86;93972.66;5143581;27;20019;-72
2022/09/14 06:16:19;;;;;;;11.32;4.57;;;;;;;14.37;59.37;93966.75;5143609;28;20298;-72
2022/09/14 06:18:46;;;;;;;11.20;3.60;;;;;;;14.44;59.35;93972.34;5143409;27;20015;-77
2022/09/14 06:21:15;;;;;;;7.97;3.97;;;;;;;14.43;58.91;93960.06;5142694;28;20019;-77
2022/09/14 06:23:41;;;;;;;8.23;4.32;;;;;;;14.49;58.95;93962.50;5143343;28;20221;-78
2022/09/14 06:26:07;;;;;;;8.45;3.72;;;;;;;14.57;59.07;93965.13;5124981;28;20038;-77
2022/09/14 06:28:34;;;;;;;8.90;4.93;;;;;;;14.64;59.07;93956.50;5146299;27;20022;-77
2022/09/14 06:31:03;;;;;;;8.23;4.03;;;;;;;14.70;59.57;93960.53;5147491;27;20023;-78
2022/09/14 06:33:29;;;;;;;12.82;5.57;;;;;;;14.82;59.17;93957.06;5147314;27;20029;-78
2022/09/14 06:36:03;;;;;;;9.38;4.82;;;;;;;14.93;59.14;93958.16;5147972;27;20068;-77
2022/09/14 06:38:29;;;;;;;9.75;5.25;;;;;;;15.03;58.55;93949.66;5147720;27;20023;-79
2022/09/14 06:41:00;;;;;;;9.52;5.85;;;;;;;15.15;58.39;93962.25;5147651;27;20102;-79
2022/09/14 06:43:28;;;;;;;13.68;5.25;;;;;;;15.14;58.64;93949.19;5147673;27;20050;-78
2022/09/14 06:46:02;;;;;;;11.43;5.75;;;;;;;15.25;58.26;93958.34;5147887;27;20243;-78
2022/09/14 06:48:31;;;;;;;12.63;5.10;;;;;;;15.35;58.03;93973.97;5147471;27;20046;-78
2022/09/14 06:50:57;;;;;;;9.50;4.20;;;;;;;15.48;57.17;93971.25;5147687;27;20270;-77
2022/09/14 06:53:23;;;;;;;11.15;4.32;;;;;;;15.55;56.26;93974.94;5147587;27;20023;-77
2022/09/14 06:55:48;;;;;;;7.03;4.07;;;;;;;15.63;56.18;93975.88;5147705;27;20060;-77
2022/09/14 06:58:13;;;;;;;6.43;3.53;;;;;;;15.70;56.35;93975.31;5147256;27;20033;-76
2022/09/14 07:00:39;;;;;;;12.52;4.53;;;;;;;15.76;56.00;93982.81;5147129;27;20039;-77
2022/09/14 07:03:05;;;;;;;9.48;3.85;;;;;;;15.83;55.65;93974.97;5128540;27;20106;-77
2022/09/14 07:05:31;;;;;;;14.30;4.40;;;;;;;15.89;55.72;93982.75;5128509;27;20015;-77
2022/09/14 07:07:57;;;;;;;8.82;3.45;;;;;;;15.96;55.45;93972.22;5146888;27;20087;-78
2022/09/14 07:10:22;;;;;;;10.95;3.92;;;;;;;16.05;55.30;93972.81;5146982;27;20047;-78
2022/09/14 07:12:48;;;;;;;11.77;4.63;;;;;;;16.07;55.24;93970.56;5146982;27;20320;-79
2022/09/14 07:15:13;;;;;;;6.90;3.70;;;;;;;16.11;55.09;93960.69;5147177;27;20254;-77
2022/09/14 07:17:43;;;;;;;18.27;4.43;;;;;;;16.22;55.16;93961.75;5146869;27;20026;-80
2022/09/14 07:20:10;;;;;;;14.10;4.05;;;;;;;16.31;54.68;93958.13;5146699;27;20086;-78
2022/09/14 07:22:35;;;;;;;13.75;5.65;;;;;;;16.38;54.75;93947.50;5145768;27;20035;-78
2022/09/14 07:25:01;;;;;;;13.43;3.80;;;;;;;16.47;54.61;93950.06;5146798;27;20031;-77
2022/09/14 07:27:26;;;;;;;14.88;4.20;;;;;;;16.55;54.14;93949.88;5146514;27;20019;-77
2022/09/14 07:29:52;;;;;;;8.65;4.25;;;;;;;16.62;53.47;93960.78;5147037;27;20031;-78
2022/09/14 07:32:18;;;;;;;11.30;4.47;;;;;;;16.69;53.74;93954.81;5146727;27;20320;-77
2022/09/14 07:34:43;;;;;;;9.15;3.78;;;;;;;16.77;53.03;93955.72;5146797;27;20027;-76
2022/09/14 07:37:09;;;;;;;8.35;3.15;;;;;;;16.86;53.56;93953.69;5146808;27;20094;-76
2022/09/14 07:39:35;;;;;;;9.25;3.72;;;;;;;16.89;53.29;93939.50;5145483;27;20370;-78
2022/09/14 07:42:00;;;;;;;10.80;3.60;;;;;;;17.00;52.48;93947.84;5146600;27;20015;-78
2022/09/14 07:44:26;;;;;;;5.68;3.30;;;;;;;17.06;52.77;93949.13;5146565;27;20019;-79
2022/09/14 07:46:51;;;;;;;7.97;3.72;;;;;;;17.15;52.70;93948.91;5146508;27;20011;-77
2022/09/14 07:49:17;;;;;;;9.73;4.00;;;;;;;17.23;52.53;93951.41;5146277;27;20023;-77
2022/09/14 07:51:43;;;;;;;18.88;4.07;;;;;;;17.33;52.80;93947.38;5146301;27;20019;-76
2022/09/14 07:54:11;;;;;;;11.75;3.35;;;;;;;17.38;51.77;93949.81;5146083;27;20026;-76
2022/09/14 07:56:37;;;;;;;15.38;4.18;;;;;;;17.45;51.00;93960.72;5146365;27;20303;-77
2022/09/14 07:59:03;;;;;;;5.38;3.40;;;;;;;17.50;51.25;93954.25;5146295;27;20150;-77
2022/09/14 08:01:29;;;;;;;11.50;3.08;;;;;;;17.48;51.46;93947.66;5146436;27;20100;-77
2022/09/14 08:03:59;;;;;;;10.82;4.32;;;;;;;17.56;51.31;93955.53;5146127;27;20019;-77
2022/09/14 08:06:25;;;;;;;5.38;3.08;;;;;;;17.69;51.37;93958.88;5146043;27;20019;-78
2022/09/14 08:08:52;;;;;;;24.27;3.85;;;;;;;17.80;51.00;93964.47;5146197;27;20035;-77
2022/09/14 08:11:27;;;;;;;6.18;3.38;;;;;;;17.91;50.62;93959.31;5145965;27;20023;-78
2022/09/14 08:13:56;;;;;;;5.43;3.10;;;;;;;17.98;49.43;93960.22;5145688;27;20019;-77
2022/09/14 08:16:24;;;;;;;9.27;3.20;;;;;;;17.96;49.88;93959.03;5145900;27;20110;-78
2022/09/14 08:18:58;;;;;;;8.73;3.15;;;;;;;18.07;50.20;93954.59;5145812;27;20043;-78
2022/09/14 08:21:25;;;;;;;6.63;3.05;;;;;;;18.13;49.04;93950.47;5145648;27;20018;-77
2022/09/14 08:23:51;;;;;;;14.13;3.58;;;;;;;18.20;49.11;93947.13;5145703;27;20027;-77
2022/09/14 08:26:19;;;;;;;10.02;3.58;;;;;;;18.27;49.53;93941.06;5145424;27;20041;-77
2022/09/14 08:28:46;;;;;;;5.53;2.88;;;;;;;18.36;49.47;93941.59;5145448;27;20251;-77
2022/09/14 08:31:14;;;;;;;11.07;3.03;;;;;;;18.49;49.43;93943.00;5145818;27;20019;-78
2022/09/14 08:33:43;;;;;;;11.00;3.00;;;;;;;18.61;48.81;93936.63;5145665;27;20019;-78
2022/09/14 08:36:10;;;;;;;8.93;2.80;;;;;;;18.70;48.51;93939.06;5145807;27;20214;-77
2022/09/14 08:38:37;;;;;;;6.25;2.85;;;;;;;18.81;48.36;93940.81;5145365;27;20064;-76
2022/09/14 08:41:36;;;;;;;8.35;2.70;;;;;;;18.92;48.05;93940.97;5127126;27;20027;-78
2022/09/14 08:44:19;;;;;;;7.47;2.60;;;;;;;19.03;48.03;93947.31;5130074;27;20192;-75
2022/09/14 08:46:50;;;;;;;7.18;3.05;;;;;;;19.12;47.29;93944.34;5145187;27;20321;-80
2022/09/14 08:49:53;;;;;;;7.20;3.05;;;;;;;19.19;47.12;93932.84;5145279;27;20022;-79
2022/09/14 08:52:24;;;;;;;;;;;;;;;19.27;47.16;93948.00;5145718;27;20027;-78
2022/09/14 08:54:53;;;;;;;14.65;3.50;;;;;;;19.24;45.93;93946.06;5145163;27;20100;-78
2022/09/14 08:57:36;;;;;;;11.68;3.45;;;;;;;19.30;46.45;93939.19;5145468;27;20075;-77
2022/09/14 09:00:12;;;;;;;11.77;2.97;;;;;;;19.38;46.25;93943.53;5145031;27;20030;-78
2022/09/14 09:03:14;;;;;;;7.90;3.33;;;;;;;19.51;46.91;93946.00;5145173;27;20019;-77
2022/09/14 09:05:54;;;;;;;13.38;3.00;;;;;;;19.60;46.10;93936.50;5145490;27;20031;-79
2022/09/14 09:08:25;;;;;;;10.45;3.20;;;;;;;19.71;46.09;93933.94;5144571;27;20096;-80
2022/09/14 09:10:53;;;;;;;5.72;2.58;;;;;;;19.82;44.67;93937.53;5144937;27;20027;-79
2022/09/14 09:13:22;;;;;;;8.85;2.58;;;;;;;19.85;44.36;93922.50;5126608;27;20102;-79
2022/09/14 09:15:58;;;;;;;12.40;2.40;;;;;;;19.73;44.33;93934.34;5145273;27;20033;-80
2022/09/14 09:19:08;;;;;;;10.80;3.17;;;;;;;19.73;44.61;93922.75;5144897;27;20098;-79
2022/09/14 09:21:44;;;;;;;6.47;2.55;;;;;;;19.86;44.03;93925.97;5131064;27;20110;-79
2022/09/14 09:24:39;;;;;;;11.30;2.95;;;;;;;19.99;44.29;93927.28;5144798;27;20062;-78
2022/09/14 09:27:12;;;;;;;4.78;2.40;;;;;;;20.05;43.62;93920.38;5144750;27;20034;-79
2022/09/14 09:29:38;;;;;;;11.77;2.50;;;;;;;20.17;43.81;93913.91;5144357;27;20023;-79
2022/09/14 09:32:07;;;;;;;7.53;2.40;;;;;;;20.29;43.36;93921.75;5144156;27;20174;-79
2022/09/14 09:34:34;;;;;;;5.95;2.22;;;;;;;20.43;43.02;93926.50;5144111;27;20026;-79
2022/09/14 09:37:00;;;;;;;7.97;2.60;;;;;;;20.49;41.98;93925.03;5144616;27;20019;-78
2022/09/14 09:39:29;;;;;;;7.80;2.83;;;;;;;20.60;42.16;93922.44;5144375;27;20079;-79
2022/09/14 09:42:05;;;;;;;6.68;2.58;;;;;;;20.70;42.00;93923.66;5144437;27;20019;-79
2022/09/14 09:44:54;;;;;;;4.82;2.50;;;;;;;20.87;41.87;93924.97;5144147;27;20015;-80
2022/09/14 09:47:34;;;;;;;7.13;2.55;;;;;;;20.93;40.99;93926.94;5144205;27;20019;-80
2022/09/14 09:50:03;;;;;;;9.68;3.00;;;;;;;21.06;41.39;93910.38;5144197;27;20023;-80
2022/09/14 09:52:30;;;;;;;8.93;2.45;;;;;;;21.14;41.28;93912.72;5144110;27;20325;-79
2022/09/14 09:54:57;;;;;;;7.55;2.28;;;;;;;21.25;39.27;93901.97;5143936;27;20048;-80
2022/09/14 09:57:30;;;;;;;10.65;2.67;;;;;;;21.27;38.64;93907.00;5144166;27;20029;-79
2022/09/14 10:00:12;;;;;;;5.95;2.40;;;;;;;21.33;39.88;93911.69;5143823;27;20090;-78
2022/09/14 10:02:38;;;;;;;;;;;;;;;21.35;39.39;93898.53;5143834;27;20022;-79
2022/09/14 10:05:10;;;;;;;5.40;2.35;;;;;;;21.37;40.40;93900.84;5144124;27;19903;-78
2022/09/14 10:07:55;;;;;;;;;;;;;;;21.50;41.58;93893.97;5144031;27;20035;-79
2022/09/14 10:10:38;;;;;;;21.58;2.78;;;;;;;21.65;41.18;93894.78;5143902;27;19974;-79
2022/09/14 10:13:05;;;;;;;7.80;2.28;;;;;;;21.78;41.01;93887.09;5143696;27;20046;-80
2022/09/14 10:15:32;;;;;;;9.90;3.33;;;;;;;21.97;39.86;93886.72;5143952;27;20027;-79
2022/09/14 10:18:14;;;;;;;11.10;2.67;;;;;;;22.07;39.95;93876.28;5143586;27;20030;-81
2022/09/14 10:20:41;;;;;;;14.32;2.38;;;;;;;22.23;39.33;93874.78;5144130;27;20026;-79
2022/09/14 10:23:19;;;;;;;13.77;2.70;;;;;;;22.41;38.80;93871.31;5143938;27;20019;-80
2022/09/14 10:25:50;;;;;;;10.43;2.78;;;;;;;22.49;38.92;93869.34;5143985;28;20235;-80
2022/09/14 10:28:32;;;;;;;8.00;2.85;;;;;;;22.62;38.77;93867.81;5143722;27;20015;-81
2022/09/14 10:31:07;;;;;;;8.60;2.53;;;;;;;22.76;38.44;93875.16;5143689;28;20123;-79
2022/09/14 10:33:34;;;;;;;10.13;2.95;;;;;;;22.90;36.68;93887.94;5143482;27;20030;-78
2022/09/14 10:36:11;;;;;;;9.50;2.53;;;;;;;23.07;37.06;93876.28;5143699;28;20018;-79
2022/09/14 10:39:00;;;;;;;18.38;2.40;;;;;;;23.22;37.55;93869.66;5143621;28;20023;-78
2022/09/14 10:41:35;;;;;;;10.00;3.00;;;;;;;23.36;36.62;93871.53;5143334;27;20078;-78
2022/09/14 10:44:48;;;;;;;10.38;2.53;;;;;;;23.49;35.36;93865.66;5143309;28;20045;-78
2022/09/14 10:47:44;;;;;;;7.97;2.88;;;;;;;23.49;34.39;93863.75;5081145;27;20035;-78
2022/09/14 10:50:40;;;;;;;8.52;2.47;;;;;;;23.36;35.16;93871.53;5143491;27;20023;-78
2022/09/14 10:53:14;;;;;;;8.25;2.90;;;;;;;23.28;34.42;93861.84;5143468;28;20045;-78
2022/09/14 10:55:57;;;;;;;11.00;3.15;;;;;;;23.38;35.15;93868.44;5143673;27;20321;-79
2022/09/14 11:02:43;;;;;;;5.25;2.50;;;;;;;23.70;34.94;93845.75;5143014;27;20385;-79
2022/09/14 11:05:19;;;;;;;9.88;2.10;;;;;;;23.89;34.92;93849.94;5142722;27;20321;-81
2022/09/14 11:07:57;;;;;;;8.45;2.10;;;;;;;24.06;33.26;93859.16;5143344;28;20035;-78
2022/09/14 11:10:32;;;;;;;8.60;2.10;;;;;;;24.21;32.14;93855.94;5143324;27;20027;-77
2022/09/14 11:13:16;;;;;;;6.55;2.22;;;;;;;24.32;31.40;93855.09;5143825;27;20050;-77
2022/09/14 11:15:57;;;;;;;4.97;2.55;;;;;;;24.33;31.09;93845.75;5147643;27;20019;-78
2022/09/14 11:18:37;;;;;;;8.38;2.42;;;;;;;24.21;32.21;93841.56;5147107;27;20023;-78
2022/09/14 11:21:34;;;;;;;11.95;3.10;;;;;;;24.39;31.83;93844.16;5147301;27;20034;-78
2022/09/14 11:24:37;;;;;;;9.02;2.35;;;;;;;24.49;29.65;93839.81;5147359;27;20019;-79
2022/09/14 11:27:08;;;;;;;2.63;1.00;;;;;;;24.57;27.47;93841.31;5146889;27;20019;-79
2022/09/14 11:29:43;;;;;;;3.60;1.17;;;;;;;24.59;26.29;93828.84;5146832;27;20321;-80
2022/09/14 11:32:35;;;;;;;2.65;0.90;;;;;;;24.60;27.41;93832.31;5146710;27;20453;-71
2022/09/14 11:35:14;;;;;;;4.70;1.10;;;;;;;24.61;26.74;93825.72;5135457;27;20031;-72
2022/09/14 11:37:49;;;;;;;1.83;1.10;;;;;;;24.69;26.52;93826.41;5145681;27;20019;-72
2022/09/14 11:40:33;;;;;;;4.35;1.30;;;;;;;24.85;26.31;93812.22;5146799;27;20022;-72
2022/09/14 11:43:10;;;;;;;4.43;1.35;;;;;;;24.91;26.78;93805.91;5146626;27;20015;-72
2022/09/14 11:46:01;;;;;;;3.92;1.30;;;;;;;25.09;27.83;93804.97;5146467;27;20040;-72
2022/09/14 11:48:45;;;;;;;6.57;1.15;;;;;;;25.29;27.23;93800.47;5107431;27;20072;-72
2022/09/14 11:51:38;;;;;;;3.38;1.38;;;;;;;25.30;25.67;93807.47;5146089;27;20076;-72
2022/09/14 11:54:12;;;;;;;3.33;1.08;;;;;;;25.31;24.98;93806.28;5144500;27;20019;-72